createdAt,value
2023-05-03T00:01:08.247Z,99625.09
2023-05-03T00:03:34.334Z,99620.38
2023-05-03T00:06:00.444Z,99613.41
2023-05-03T00:08:26.560Z,99621.41
2023-05-03T00:10:52.687Z,99609.91
2023-05-03T00:13:18.779Z,99598.34
2023-05-03T00:15:44.880Z,99601.88
2023-05-03T00:18:11.056Z,99604.72
2023-05-03T00:20:37.261Z,99604.72
2023-05-03T00:23:03.404Z,99599.38
2023-05-03T00:25:29.491Z,99608.38
2023-05-03T00:27:55.590Z,99596.84
2023-05-03T00:30:21.725Z,99601.22
2023-05-03T00:32:47.897Z,99601.38
2023-05-03T00:35:14.078Z,99599.53
2023-05-03T00:37:40.212Z,99589.03
2023-05-03T00:40:06.427Z,99594.38
2023-05-03T00:42:32.623Z,99586.34
2023-05-03T00:44:58.764Z,99586.34
2023-05-03T00:47:24.898Z,99587.19
2023-05-03T00:49:51.056Z,99590.03
2023-05-03T00:52:17.265Z,99587.34
2023-05-03T00:54:43.392Z,99583.84
2023-05-03T00:57:09.500Z,99580.34
2023-05-03T00:59:35.618Z,99579.31
2023-05-03T01:02:01.948Z,99582.19
2023-05-03T01:04:28.198Z,99572.31
2023-05-03T01:06:54.885Z,99579.53
2023-05-03T01:09:20.998Z,99584.88
2023-05-03T01:11:47.081Z,99589.34
2023-05-03T01:14:13.203Z,99591.22
2023-05-03T01:16:39.418Z,99594.91
2023-05-03T01:19:05.596Z,99597.59
2023-05-03T01:21:31.713Z,99608.28
2023-05-03T01:23:57.821Z,99613.63
2023-05-03T01:26:23.922Z,99617.28
2023-05-03T01:28:50.074Z,99618.13
2023-05-03T01:31:16.176Z,99622.63
2023-05-03T01:33:42.297Z,99612.13
2023-05-03T01:36:08.420Z,99611.13
2023-05-03T01:38:34.519Z,99613.13
2023-05-03T01:41:00.611Z,99608.63
2023-05-03T01:43:26.842Z,99607.78
2023-05-03T01:45:52.959Z,99611.47
2023-05-03T01:48:19.088Z,99606.97
2023-05-03T01:50:45.228Z,99608.81
2023-05-03T01:53:11.324Z,99611.47
2023-05-03T01:55:37.443Z,99603.47
2023-05-03T01:58:03.622Z,99610.66
2023-05-03T02:00:29.725Z,99616.16
2023-05-03T02:02:55.840Z,99622.34
2023-05-03T02:05:22.009Z,99622.34
2023-05-03T02:07:48.102Z,99622.34
2023-05-03T02:10:14.201Z,99629.38
2023-05-03T02:12:40.331Z,99630.53
2023-05-03T02:15:06.427Z,99629.69
2023-05-03T02:17:32.583Z,99632.38
2023-05-03T02:19:58.719Z,99636.91
2023-05-03T02:22:24.828Z,99629.69
2023-05-03T02:24:50.944Z,99627.22
2023-05-03T02:27:17.081Z,99632.56
2023-05-03T02:29:43.174Z,99633.41
2023-05-03T02:32:09.266Z,99637.91
2023-05-03T02:34:35.492Z,99640.75
2023-05-03T02:37:01.586Z,99641.59
2023-05-03T02:39:27.675Z,99640.75
2023-05-03T02:41:53.815Z,99640.75
2023-05-03T02:44:19.924Z,99652.28
2023-05-03T02:46:46.101Z,99653.28
2023-05-03T02:49:12.265Z,99648.94
2023-05-03T02:51:38.382Z,99647.13
2023-05-03T02:54:04.469Z,99648.13
2023-05-03T02:56:30.587Z,99645.44
2023-05-03T02:58:56.684Z,99645.63
2023-05-03T03:01:22.844Z,99647.28
2023-05-03T03:03:49.136Z,99649.97
2023-05-03T03:06:15.461Z,99637.63
2023-05-03T03:08:41.582Z,99638.59
2023-05-03T03:11:08.224Z,99641.28
2023-05-03T03:13:34.336Z,99635.94
2023-05-03T03:16:00.502Z,99640.44
2023-05-03T03:18:26.649Z,99643.13
2023-05-03T03:20:52.752Z,99635.09
2023-05-03T03:23:18.830Z,99639.63
2023-05-03T03:25:44.948Z,99626.44
2023-05-03T03:28:11.051Z,99621.09
2023-05-03T03:30:37.136Z,99627.44
2023-05-03T03:33:03.293Z,99622.94
2023-05-03T03:35:29.437Z,99622.94
2023-05-03T03:37:55.531Z,99618.56
2023-05-03T03:40:21.648Z,99622.25
2023-05-03T03:42:47.744Z,99621.25
2023-05-03T03:45:13.861Z,99624.94
2023-05-03T03:47:40.035Z,99622.25
2023-05-03T03:50:06.404Z,99623.28
2023-05-03T03:52:32.735Z,99617.94
2023-05-03T03:54:58.847Z,99619.75
2023-05-03T03:57:24.956Z,99616.25
2023-05-03T03:59:51.068Z,99618.09
2023-05-03T04:02:17.277Z,99619.94
2023-05-03T04:04:43.403Z,99613.59
2023-05-03T04:07:09.489Z,99611.94
2023-05-03T04:09:35.613Z,99615.59
2023-05-03T04:12:01.725Z,99617.28
2023-05-03T04:14:27.820Z,99617.44
2023-05-03T04:16:54.339Z,99610.44
2023-05-03T04:19:20.486Z,99610.25
2023-05-03T04:21:46.596Z,99612.91
2023-05-03T04:24:12.698Z,99606.91
2023-05-03T04:26:38.788Z,99606.75
2023-05-03T04:29:04.876Z,99606.09
2023-05-03T04:31:31.123Z,99608.59
2023-05-03T04:33:57.391Z,99598.06
2023-05-03T04:36:23.499Z,99599.91
2023-05-03T04:38:49.630Z,99600.75
2023-05-03T04:41:16.254Z,99594.56
2023-05-03T04:43:42.392Z,99587.56
2023-05-03T04:46:08.556Z,99595.59
2023-05-03T04:48:34.699Z,99589.38
2023-05-03T04:51:00.791Z,99593.09
2023-05-03T04:53:26.891Z,99592.06
2023-05-03T04:55:52.971Z,99587.75
2023-05-03T04:58:19.061Z,99589.59
2023-05-03T05:00:45.181Z,99592.25
2023-05-03T05:03:11.369Z,99595.91
2023-05-03T05:05:37.697Z,99601.25
2023-05-03T05:08:03.943Z,99594.28
2023-05-03T05:10:30.018Z,99595.09
2023-05-03T05:12:56.096Z,99595.25
2023-05-03T05:15:22.241Z,99604.97
2023-05-03T05:17:48.479Z,99609.66
2023-05-03T05:20:15.786Z,99610.47
2023-05-03T05:22:43.091Z,99619.31
2023-05-03T05:25:09.189Z,99612.31
2023-05-03T05:27:35.281Z,99621.16
2023-05-03T05:30:01.525Z,99623.84
2023-05-03T05:32:27.815Z,99625.69
2023-05-03T05:34:53.916Z,99620.34
2023-05-03T05:37:20.046Z,99630.19
2023-05-03T05:39:46.158Z,99636.38
2023-05-03T05:42:12.331Z,99637.38
2023-05-03T05:44:38.455Z,99641.88
2023-05-03T05:47:06.674Z,99642.72
2023-05-03T05:49:34.295Z,99644.56
2023-05-03T05:52:00.470Z,99649.91
2023-05-03T05:54:28.503Z,99652.56
2023-05-03T05:56:55.434Z,99660.78
2023-05-03T05:59:21.832Z,99658.94
2023-05-03T06:01:47.986Z,99661.59
2023-05-03T06:04:14.113Z,99665.09
2023-05-03T06:06:40.274Z,99674.97
2023-05-03T06:09:16.598Z,99675.78
2023-05-03T06:11:49.370Z,99679.50
2023-05-03T06:14:15.465Z,99680.47
2023-05-03T06:16:41.688Z,99676.81
2023-05-03T06:19:07.886Z,99673.31
2023-05-03T06:21:33.983Z,99677.81
2023-05-03T06:24:00.074Z,99675.13
2023-05-03T06:26:26.702Z,99675.13
2023-05-03T06:28:52.801Z,99676.00
2023-05-03T06:31:19.030Z,99673.31
2023-05-03T06:33:45.234Z,99670.81
2023-05-03T06:36:11.352Z,99672.66
2023-05-03T06:38:37.451Z,99679.66
2023-05-03T06:41:03.552Z,99685.00
2023-05-03T06:43:29.659Z,99692.84
2023-05-03T06:45:55.881Z,99691.16
2023-05-03T06:48:22.170Z,99691.16
2023-05-03T06:50:48.305Z,99685.00
2023-05-03T06:53:14.420Z,99683.16
2023-05-03T06:55:40.547Z,99689.34
2023-05-03T06:58:06.650Z,99686.69
2023-05-03T07:00:32.761Z,99681.34
2023-05-03T07:02:58.934Z,99678.66
2023-05-03T07:05:25.070Z,99680.47
2023-05-03T07:07:51.223Z,99674.13
2023-05-03T07:10:17.409Z,99679.50
2023-05-03T07:12:43.535Z,99677.81
2023-05-03T07:15:09.667Z,99667.97
2023-05-03T07:17:35.848Z,99673.31
2023-05-03T07:20:02.155Z,99676.81
2023-05-03T07:22:28.511Z,99667.97
2023-05-03T07:24:54.752Z,99674.13
2023-05-03T07:27:21.075Z,99668.78
2023-05-03T07:29:47.167Z,99667.97
2023-05-03T07:32:13.333Z,99666.13
2023-05-03T07:34:39.488Z,99674.13
2023-05-03T07:37:05.612Z,99678.47
2023-05-03T07:39:31.858Z,99671.28
2023-05-03T07:41:57.957Z,99665.94
2023-05-03T07:44:24.090Z,99660.59
2023-05-03T07:46:50.212Z,99663.09
2023-05-03T07:49:16.300Z,99654.25
2023-05-03T07:51:55.390Z,99652.41
2023-05-03T07:54:21.564Z,99657.75
2023-05-03T07:56:47.669Z,99657.75
2023-05-03T07:59:13.766Z,99657.75
2023-05-03T08:01:39.888Z,99655.06
2023-05-03T08:04:06.413Z,99652.41
2023-05-03T08:06:32.922Z,99657.75
2023-05-03T08:08:59.154Z,99655.91
2023-05-03T08:11:25.258Z,99660.41
2023-05-03T08:13:51.413Z,99655.06
2023-05-03T08:16:17.644Z,99656.72
2023-05-03T08:18:43.749Z,99659.41
2023-05-03T08:21:09.863Z,99654.72
2023-05-03T08:23:36.016Z,99661.91
2023-05-03T08:26:02.112Z,99660.06
2023-05-03T08:28:28.218Z,99659.06
2023-05-03T08:30:54.375Z,99649.06
2023-05-03T08:33:20.503Z,99649.88
2023-05-03T08:35:48.666Z,99644.53
2023-05-03T08:38:15.571Z,99641.03
2023-05-03T08:40:42.769Z,99642.84
2023-05-03T08:43:09.418Z,99638.34
2023-05-03T08:45:35.646Z,99642.69
2023-05-03T08:48:01.912Z,99634.81
2023-05-03T08:50:28.045Z,99639.19
2023-05-03T08:52:54.222Z,99647.19
2023-05-03T08:55:20.336Z,99632.00
2023-05-03T08:57:46.518Z,99639.00
2023-05-03T09:00:13.175Z,99645.34
2023-05-03T09:02:39.731Z,99649.69
2023-05-03T09:05:06.270Z,99645.19
2023-05-03T09:07:32.606Z,99653.22
2023-05-03T09:09:58.717Z,99663.72
2023-05-03T09:12:24.814Z,99667.41
2023-05-03T09:14:50.937Z,99657.53
2023-05-03T09:17:17.045Z,99652.03
2023-05-03T09:19:43.151Z,99647.66
2023-05-03T09:22:09.310Z,99647.50
2023-05-03T09:24:35.418Z,99644.00
2023-05-03T09:27:01.524Z,99647.34
2023-05-03T09:29:27.692Z,99638.47
2023-05-03T09:31:53.889Z,99641.13
2023-05-03T09:34:20.040Z,99640.31
2023-05-03T09:36:46.669Z,99645.50
2023-05-03T09:39:12.764Z,99634.97
2023-05-03T09:41:38.875Z,99631.31
2023-05-03T09:44:05.019Z,99629.63
2023-05-03T09:46:31.171Z,99631.31
2023-05-03T09:48:57.310Z,99629.47
2023-05-03T09:51:23.437Z,99628.63
2023-05-03T09:53:49.557Z,99626.94
2023-05-03T09:56:15.668Z,99621.59
2023-05-03T09:58:41.781Z,99614.41
2023-05-03T10:01:07.936Z,99617.94
2023-05-03T10:03:34.153Z,99610.75
2023-05-03T10:06:00.294Z,99621.44
2023-05-03T10:08:26.472Z,99616.91
2023-05-03T10:10:52.575Z,99620.41
2023-05-03T10:13:18.715Z,99614.25
2023-05-03T10:15:44.846Z,99611.56
2023-05-03T10:18:10.985Z,99606.22
2023-05-03T10:20:37.624Z,99610.56
2023-05-03T10:23:03.739Z,99602.53
2023-05-03T10:25:29.845Z,99598.03
2023-05-03T10:27:55.950Z,99598.03
2023-05-03T10:30:22.052Z,99595.38
2023-05-03T10:32:48.239Z,99598.88
2023-05-03T10:35:14.410Z,99594.34
2023-05-03T10:37:40.529Z,99590.03
2023-05-03T10:40:06.651Z,99582.81
2023-05-03T10:42:32.785Z,99583.66
2023-05-03T10:44:58.876Z,99573.78
2023-05-03T10:47:25.098Z,99579.97
2023-05-03T10:49:51.275Z,99577.28
2023-05-03T10:52:17.410Z,99573.78
2023-05-03T10:54:43.538Z,99570.94
2023-05-03T10:57:09.649Z,99566.44
2023-05-03T10:59:35.737Z,99569.09
2023-05-03T11:02:01.966Z,99564.56
2023-05-03T11:04:30.325Z,99566.44
2023-05-03T11:06:57.787Z,99561.91
2023-05-03T11:09:23.936Z,99560.91
2023-05-03T11:11:50.047Z,99551.22
2023-05-03T11:14:16.214Z,99535.16
2023-05-03T11:16:42.378Z,99542.19
2023-05-03T11:19:08.567Z,99544.06
2023-05-03T11:21:34.680Z,99541.38
2023-05-03T11:24:00.784Z,99536.84
2023-05-03T11:26:27.060Z,99527.16
2023-05-03T11:28:53.178Z,99527.16
2023-05-03T11:31:19.335Z,99539.53
2023-05-03T11:33:47.846Z,99534.19
2023-05-03T11:36:14.187Z,99539.31
2023-05-03T11:38:40.284Z,99533.97
2023-05-03T11:41:06.397Z,99530.31
2023-05-03T11:43:32.506Z,99531.97
2023-05-03T11:45:58.680Z,99525.97
2023-05-03T11:48:24.952Z,99534.63
2023-05-03T11:50:51.112Z,99532.78
2023-05-03T11:53:17.199Z,99534.63
2023-05-03T11:55:43.348Z,99522.09
2023-05-03T11:58:09.460Z,99510.41
2023-05-03T12:00:35.563Z,99515.94
2023-05-03T12:03:01.855Z,99527.28
2023-05-03T12:05:28.303Z,99523.78
2023-05-03T12:07:55.313Z,99513.91
2023-05-03T12:10:26.229Z,99529.13
2023-05-03T12:12:53.503Z,99524.59
2023-05-03T12:15:21.446Z,99522.94
2023-05-03T12:17:49.675Z,99525.44
2023-05-03T12:22:46.180Z,99523.56
2023-05-03T12:25:15.408Z,99527.94
2023-05-03T12:27:41.993Z,99527.09
2023-05-03T12:30:09.607Z,99527.09
2023-05-03T12:32:38.880Z,99523.56
2023-05-03T12:35:07.996Z,99520.75
2023-05-03T12:37:36.910Z,99517.06
2023-05-03T12:42:37.249Z,99514.41
2023-05-03T12:45:04.940Z,99510.88
2023-05-03T12:47:34.191Z,99503.69
2023-05-03T12:50:05.828Z,99501.03
2023-05-03T12:52:37.842Z,99484.13
2023-05-03T12:55:04.918Z,99499.19
2023-05-03T12:57:34.033Z,99490.97
2023-05-03T13:00:04.183Z,99492.81
2023-05-03T13:05:00.809Z,99488.28
2023-05-03T13:07:29.214Z,99480.25
2023-05-03T13:12:25.496Z,99480.91
2023-05-03T13:14:51.626Z,99472.06
2023-05-03T13:17:17.734Z,99472.91
2023-05-03T13:19:43.832Z,99462.19
2023-05-03T13:22:09.946Z,99462.41
2023-05-03T13:24:36.052Z,99468.38
2023-05-03T13:27:02.144Z,99469.22
2023-05-03T13:29:28.248Z,99463.88
2023-05-03T13:31:54.417Z,99448.66
2023-05-03T13:34:20.536Z,99448.66
2023-05-03T13:36:46.870Z,99452.16
2023-05-03T13:39:12.964Z,99450.31
2023-05-03T13:41:39.162Z,99454.84
2023-05-03T13:44:05.286Z,99452.97
2023-05-03T13:46:31.482Z,99445.81
2023-05-03T13:48:57.705Z,99446.66
2023-05-03T13:51:23.918Z,99436.78
2023-05-03T13:53:50.110Z,99428.91
2023-05-03T13:56:16.348Z,99430.59
2023-05-03T13:58:42.484Z,99424.22
2023-05-03T14:01:08.739Z,99421.56
2023-05-03T14:03:35.046Z,99426.91
2023-05-03T14:06:01.440Z,99422.38
2023-05-03T14:08:27.544Z,99407.19
2023-05-03T14:10:53.694Z,99407.19
2023-05-03T14:13:19.827Z,99405.34
2023-05-03T14:15:46.005Z,99406.16
2023-05-03T14:18:12.308Z,99405.34
2023-05-03T14:20:38.558Z,99405.13
2023-05-03T14:23:04.707Z,99382.91
2023-05-03T14:25:31.070Z,99389.09
2023-05-03T14:27:57.260Z,99380.25
2023-05-03T14:30:23.372Z,99383.75
2023-05-03T14:32:49.494Z,99383.75
2023-05-03T14:35:15.643Z,99373.91
2023-05-03T14:37:41.780Z,99375.53
2023-05-03T14:40:08.251Z,99378.22
2023-05-03T14:42:34.618Z,99364.03
2023-05-03T14:45:00.714Z,99368.34
2023-05-03T14:47:26.853Z,99368.34
2023-05-03T14:49:53.196Z,99365.66
2023-05-03T14:52:19.297Z,99367.34
2023-05-03T14:54:45.410Z,99355.84
2023-05-03T14:57:11.506Z,99355.63
2023-05-03T14:59:37.703Z,99359.13
2023-05-03T15:02:03.867Z,99351.97
2023-05-03T15:04:29.990Z,99348.44
2023-05-03T15:06:56.098Z,99357.31
2023-05-03T15:09:22.228Z,99354.63
2023-05-03T15:11:48.339Z,99350.94
2023-05-03T15:14:14.621Z,99354.63
2023-05-03T15:16:40.817Z,99354.44
2023-05-03T15:19:06.951Z,99357.94
2023-05-03T15:21:33.052Z,99344.75
2023-05-03T15:23:59.364Z,99353.44
2023-05-03T15:26:25.700Z,99346.22
2023-05-03T15:28:51.810Z,99343.72
2023-05-03T15:31:17.901Z,99335.53
2023-05-03T15:33:44.022Z,99341.88
2023-05-03T15:36:10.117Z,99338.22
2023-05-03T15:38:36.493Z,99332.84
2023-05-03T15:41:02.748Z,99319.28
2023-05-03T15:43:28.856Z,99322.97
2023-05-03T15:45:54.972Z,99329.16
2023-05-03T15:48:21.115Z,99321.13
2023-05-03T15:50:47.221Z,99323.63
2023-05-03T15:53:13.325Z,99331.66
2023-05-03T15:55:39.446Z,99327.13
2023-05-03T15:58:05.532Z,99312.09
2023-05-03T16:00:31.635Z,99313.75
2023-05-03T16:02:57.755Z,99316.44
2023-05-03T16:05:23.971Z,99309.22
2023-05-03T16:07:50.099Z,99319.75
2023-05-03T16:10:16.207Z,99318.09
2023-05-03T16:12:42.815Z,99318.09
2023-05-03T16:15:09.100Z,99318.09
2023-05-03T16:17:35.232Z,99325.09
2023-05-03T16:20:01.569Z,99325.09
2023-05-03T16:22:27.808Z,99321.41
2023-05-03T16:24:53.945Z,99325.09
2023-05-03T16:27:20.050Z,99318.72
2023-05-03T16:29:46.129Z,99322.25
2023-05-03T16:32:12.248Z,99315.06
2023-05-03T16:34:38.381Z,99320.41
2023-05-03T16:37:04.509Z,99319.38
2023-05-03T16:39:30.646Z,99310.53
2023-05-03T16:41:56.745Z,99314.03
2023-05-03T16:44:22.828Z,99311.34
2023-05-03T16:46:49.355Z,99314.84
2023-05-03T16:49:15.455Z,99308.50
2023-05-03T16:51:41.629Z,99306.81
2023-05-03T16:54:07.748Z,99307.69
2023-05-03T16:56:33.866Z,99311.19
2023-05-03T16:58:59.968Z,99306.81
2023-05-03T17:01:26.161Z,99308.50
2023-05-03T17:03:52.386Z,99299.66
2023-05-03T17:06:19.823Z,99300.47
2023-05-03T17:08:46.012Z,99291.63
2023-05-03T17:11:12.103Z,99290.59
2023-05-03T17:13:38.204Z,99294.09
2023-05-03T17:16:04.421Z,99291.41
2023-05-03T17:18:30.541Z,99294.94
2023-05-03T17:20:56.637Z,99290.44
2023-05-03T17:23:22.796Z,99285.91
2023-05-03T17:25:48.900Z,99288.56
2023-05-03T17:28:15.000Z,99280.53
2023-05-03T17:30:41.118Z,99280.53
2023-05-03T17:33:07.232Z,99276.03
2023-05-03T17:35:33.326Z,99278.69
2023-05-03T17:37:59.446Z,99276.84
2023-05-03T17:40:25.545Z,99276.84
2023-05-03T17:42:51.630Z,99273.34
2023-05-03T17:45:17.730Z,99274.16
2023-05-03T17:47:43.872Z,99275.84
2023-05-03T17:50:10.121Z,99275.03
2023-05-03T17:52:37.105Z,99273.16
2023-05-03T17:55:03.236Z,99275.84
2023-05-03T17:57:29.338Z,99271.31
2023-05-03T17:59:55.477Z,99277.50
2023-05-03T18:02:21.657Z,99278.31
2023-05-03T18:04:47.849Z,99286.34
2023-05-03T18:07:13.954Z,99268.63
2023-05-03T18:09:40.104Z,99280.16
2023-05-03T18:12:06.200Z,99277.50
2023-05-03T18:14:32.306Z,99280.16
2023-05-03T18:16:58.404Z,99277.50
2023-05-03T18:19:24.500Z,99282.84
2023-05-03T18:21:50.611Z,99282.03
2023-05-03T18:24:16.699Z,99288.19
2023-05-03T18:26:42.782Z,99292.53
2023-05-03T18:29:08.911Z,99287.19
2023-05-03T18:31:35.044Z,99282.84
2023-05-03T18:34:01.196Z,99288.19
2023-05-03T18:36:27.387Z,99293.53
2023-05-03T18:38:53.485Z,99287.19
2023-05-03T18:41:19.567Z,99284.53
2023-05-03T18:43:45.678Z,99289.88
2023-05-03T18:46:11.803Z,99284.31
2023-05-03T18:48:37.930Z,99276.28
2023-05-03T18:51:04.406Z,99281.84
2023-05-03T18:53:30.488Z,99283.50
2023-05-03T18:55:56.575Z,99283.50
2023-05-03T18:58:22.860Z,99284.31
2023-05-03T19:00:48.966Z,99273.81
2023-05-03T19:03:15.149Z,99286.16
2023-05-03T19:05:41.303Z,99279.16
2023-05-03T19:08:07.392Z,99273.81
2023-05-03T19:10:33.491Z,99278.13
2023-05-03T19:12:59.634Z,99284.31
2023-05-03T19:15:25.760Z,99275.63
2023-05-03T19:17:51.886Z,99282.66
2023-05-03T19:20:18.049Z,99284.53
2023-05-03T19:22:44.130Z,99283.50
2023-05-03T19:25:10.303Z,99278.97
2023-05-03T19:27:36.452Z,99289.88
2023-05-03T19:30:02.748Z,99287.84
2023-05-03T19:32:29.076Z,99294.19
2023-05-03T19:34:55.221Z,99290.50
2023-05-03T19:37:21.329Z,99282.50
2023-05-03T19:39:47.435Z,99292.34
2023-05-03T19:42:13.592Z,99286.16
2023-05-03T19:44:39.695Z,99279.81
2023-05-03T19:47:05.831Z,99287.84
2023-05-03T19:49:32.008Z,99284.53
2023-05-03T19:51:58.109Z,99287.84
2023-05-03T19:54:24.213Z,99280.81
2023-05-03T19:56:50.381Z,99277.31
2023-05-03T19:59:16.494Z,99279.81
2023-05-03T20:01:42.886Z,99276.28
2023-05-03T20:04:09.156Z,99280.81
2023-05-03T20:06:35.402Z,99277.13
2023-05-03T20:09:01.481Z,99276.50
2023-05-03T20:11:28.342Z,99284.53
2023-05-03T20:13:54.430Z,99284.31
2023-05-03T20:16:21.788Z,99281.63
2023-05-03T20:18:48.170Z,99277.31
2023-05-03T20:21:14.263Z,99283.50
2023-05-03T20:23:40.363Z,99275.63
2023-05-03T20:26:06.479Z,99273.81
2023-05-03T20:28:32.616Z,99281.84
2023-05-03T20:30:58.762Z,99283.66
2023-05-03T20:33:24.893Z,99274.81
2023-05-03T20:35:51.051Z,99267.63
2023-05-03T20:38:17.154Z,99265.97
2023-05-03T20:40:43.254Z,99264.13
2023-05-03T20:43:09.354Z,99263.28
2023-05-03T20:45:35.467Z,99259.78
2023-05-03T20:48:01.660Z,99264.31
2023-05-03T20:50:27.774Z,99260.63
2023-05-03T20:52:53.864Z,99259.78
2023-05-03T20:55:19.985Z,99269.47
2023-05-03T20:57:46.073Z,99260.63
2023-05-03T21:00:12.172Z,99259.78
2023-05-03T21:02:38.335Z,99258.13
2023-05-03T21:05:04.525Z,99254.44
2023-05-03T21:07:30.618Z,99267.00
2023-05-03T21:09:56.745Z,99262.47
2023-05-03T21:12:22.861Z,99258.97
2023-05-03T21:14:48.960Z,99255.44
2023-05-03T21:17:15.074Z,99251.78
2023-05-03T21:19:41.184Z,99258.13
2023-05-03T21:22:07.296Z,99250.94
2023-05-03T21:24:33.424Z,99247.41
2023-05-03T21:26:59.519Z,99252.78
2023-05-03T21:29:25.611Z,99258.13
2023-05-03T21:31:51.760Z,99256.47
2023-05-03T21:34:17.898Z,99256.47
2023-05-03T21:36:43.995Z,99263.47
2023-05-03T21:39:10.129Z,99264.50
2023-05-03T21:41:36.213Z,99262.66
2023-05-03T21:44:02.363Z,99255.66
2023-05-03T21:46:28.522Z,99250.09
2023-05-03T21:48:54.651Z,99252.97
2023-05-03T21:51:20.743Z,99244.13
2023-05-03T21:53:46.844Z,99236.94
2023-05-03T21:56:12.940Z,99235.25
2023-05-03T21:58:39.039Z,99230.75
2023-05-03T22:01:05.647Z,99231.75
2023-05-03T22:03:31.871Z,99222.72
2023-05-03T22:05:58.024Z,99223.72
2023-05-03T22:08:24.143Z,99214.88
2023-05-03T22:10:50.261Z,99221.06
2023-05-03T22:13:16.518Z,99227.22
2023-05-03T22:15:42.672Z,99221.06
2023-05-03T22:18:08.855Z,99219.41
2023-05-03T22:20:35.014Z,99215.69
2023-05-03T22:23:01.122Z,99214.06
2023-05-03T22:25:27.592Z,99216.72
2023-05-03T22:27:54.662Z,99214.06
2023-05-03T22:30:20.779Z,99212.22
2023-05-03T22:32:46.949Z,99208.72
2023-05-03T22:35:13.071Z,99212.22
2023-05-03T22:37:39.174Z,99212.38
2023-05-03T22:40:05.471Z,99207.84
2023-05-03T22:42:31.750Z,99212.38
2023-05-03T22:44:57.863Z,99214.22
2023-05-03T22:47:23.986Z,99204.34
2023-05-03T22:49:50.128Z,99205.19
2023-05-03T22:52:16.237Z,99207.03
2023-05-03T22:54:42.337Z,99201.69
2023-05-03T22:57:08.464Z,99201.69
2023-05-03T22:59:34.572Z,99198.19
2023-05-03T23:02:00.672Z,99200.03
2023-05-03T23:04:26.773Z,99200.88
2023-05-03T23:06:53.072Z,99209.72
2023-05-03T23:09:19.269Z,99203.72
2023-05-03T23:11:45.387Z,99205.38
2023-05-03T23:14:11.517Z,99200.03
2023-05-03T23:16:37.645Z,99199.22
2023-05-03T23:19:03.763Z,99203.72
2023-05-03T23:21:29.884Z,99203.72
2023-05-03T23:23:55.985Z,99206.38
2023-05-03T23:26:22.109Z,99197.38
2023-05-03T23:28:48.813Z,99195.69
2023-05-03T23:31:15.354Z,99195.69
2023-05-03T23:33:41.886Z,99193.00
2023-05-03T23:36:08.001Z,99187.66
2023-05-03T23:38:34.161Z,99194.88
2023-05-03T23:41:00.340Z,99194.03
2023-05-03T23:43:26.462Z,99195.69
2023-05-03T23:45:52.584Z,99191.38
2023-05-03T23:48:18.697Z,99186.03
2023-05-03T23:50:44.852Z,99176.34
2023-05-03T23:53:10.948Z,99173.69
2023-05-03T23:55:37.043Z,99173.69
2023-05-03T23:58:03.148Z,99170.16
